Time,TemperatureF,DewpointF,PressureIn,WindDirection,WindDirectionDegrees,WindSpeedMPH,WindSpeedGustMPH,Humidity,HourlyPrecipIn,Conditions,Clouds,dailyrainin,SoftwareType,DateUTC
2013-04-21 00:01:00,32.8,25.4,30.29,ESE,112,1.0,9.0,74,0.00,,,-99.99,WeatherLink 5.7,2013-04-21 05:01:00,
2013-04-21 00:16:00,32.7,25.6,30.29,ESE,112,1.0,5.0,75,0.00,,,-99.99,WeatherLink 5.7,2013-04-21 05:16:00,
2013-04-21 00:31:00,32.8,26.1,30.29,ESE,112,1.0,5.0,76,0.00,,,-99.99,WeatherLink 5.7,2013-04-21 05:31:00,
2013-04-21 00:46:00,32.8,26.1,30.29,SE,135,1.0,4.0,76,0.00,,,-99.99,WeatherLink 5.7,2013-04-21 05:46:00,
2013-04-21 01:01:00,32.4,25.7,30.29,SE,135,0.0,1.0,76,0.00,,,-99.99,WeatherLink 5.7,2013-04-21 06:01:00,
2013-04-21 01:16:00,31.9,25.2,30.30,North,-999,0.0,0.0,76,0.00,,,-99.99,WeatherLink 5.7,2013-04-21 06:16:00,
2013-04-21 01:31:00,31.6,25.2,30.31,North,-999,0.0,0.0,77,0.00,,,-99.99,WeatherLink 5.7,2013-04-21 06:31:00,
2013-04-21 01:46:00,31.5,25.4,30.31,SE,135,0.0,1.0,78,0.00,,,-99.99,WeatherLink 5.7,2013-04-21 06:46:00,
2013-04-21 02:01:00,31.0,24.9,30.32,SE,135,0.0,1.0,78,0.00,,,-99.99,WeatherLink 5.7,2013-04-21 07:01:00,
2013-04-21 02:16:00,31.0,24.9,30.32,North,-999,0.0,0.0,78,0.00,,,-99.99,WeatherLink 5.7,2013-04-21 07:16:00,
2013-04-21 02:31:00,31.0,24.9,30.32,SE,135,0.0,3.0,78,0.00,,,-99.99,WeatherLink 5.7,2013-04-21 07:31:00,
2013-04-21 02:46:00,31.5,25.1,30.32,SE,135,1.0,4.0,77,0.00,,,-99.99,WeatherLink 5.7,2013-04-21 07:46:00,
2013-04-21 03:01:00,31.6,25.2,30.32,SE,135,1.0,4.0,77,0.00,,,-99.99,WeatherLink 5.7,2013-04-21 08:01:00,
2013-04-21 03:16:00,32.1,25.4,30.31,ESE,112,2.0,5.0,76,0.00,,,-99.99,WeatherLink 5.7,2013-04-21 08:16:00,
2013-04-21 03:31:00,32.1,25.4,30.31,ESE,112,1.0,6.0,76,0.00,,,-99.99,WeatherLink 5.7,2013-04-21 08:31:00,
2013-04-21 03:47:00,32.1,25.4,30.31,ESE,112,1.0,5.0,76,0.00,,,-99.99,WeatherLink 5.7,2013-04-21 08:47:00,
2013-04-21 04:01:00,32.1,25.7,30.31,ESE,112,0.0,4.0,77,0.00,,,-99.99,WeatherLink 5.7,2013-04-21 09:01:00,
2013-04-21 04:16:00,32.2,25.5,30.31,ESE,112,1.0,5.0,76,0.00,,,-99.99,WeatherLink 5.7,2013-04-21 09:16:00,
2013-04-21 04:31:00,32.7,25.6,30.31,SE,135,1.0,4.0,75,0.00,,,-99.99,WeatherLink 5.7,2013-04-21 09:31:00,
2013-04-21 04:46:00,32.8,25.4,30.32,SE,135,2.0,6.0,74,0.00,,,-99.99,WeatherLink 5.7,2013-04-21 09:46:00,
2013-04-21 05:01:00,32.8,25.1,30.32,SE,135,1.0,5.0,73,0.00,,,-99.99,WeatherLink 5.7,2013-04-21 10:01:00,
2013-04-21 05:16:00,33.2,24.5,30.32,SE,135,2.0,7.0,70,0.00,,,-99.99,WeatherLink 5.7,2013-04-21 10:16:00,
2013-04-21 05:31:00,33.4,24.7,30.33,SE,135,2.0,6.0,70,0.00,,,-99.99,WeatherLink 5.7,2013-04-21 10:31:00,
2013-04-21 05:46:00,33.5,24.4,30.33,SE,135,2.0,10.0,69,0.00,,,-99.99,WeatherLink 5.7,2013-04-21 10:46:00,
2013-04-21 06:01:00,33.7,24.6,30.33,ESE,112,2.0,8.0,69,0.00,,,-99.99,WeatherLink 5.7,2013-04-21 11:01:00,
2013-04-21 06:16:00,33.8,24.4,30.33,SE,135,4.0,11.0,68,0.00,,,-99.99,WeatherLink 5.7,2013-04-21 11:16:00,
2013-04-21 06:31:00,34.1,24.3,30.34,SE,135,4.0,10.0,67,0.00,,,-99.99,WeatherLink 5.7,2013-04-21 11:31:00,
2013-04-21 06:46:00,34.4,23.8,30.35,SE,135,4.0,11.0,65,0.00,,,-99.99,WeatherLink 5.7,2013-04-21 11:46:00,
2013-04-21 07:01:00,34.7,23.8,30.36,SE,135,4.0,9.0,64,0.00,,,-99.99,WeatherLink 5.7,2013-04-21 12:01:00,
2013-04-21 07:16:00,35.2,23.9,30.37,SE,135,2.0,8.0,63,0.00,,,-99.99,WeatherLink 5.7,2013-04-21 12:16:00,
2013-04-21 07:31:00,35.5,23.8,30.38,SE,135,2.0,6.0,62,0.00,,,-99.99,WeatherLink 5.7,2013-04-21 12:31:00,
2013-04-21 07:46:00,36.2,23.2,30.38,SE,135,5.0,10.0,59,0.00,,,-99.99,WeatherLink 5.7,2013-04-21 12:46:00,
2013-04-21 08:01:00,36.2,23.2,30.38,SE,135,5.0,10.0,59,0.00,,,-99.99,WeatherLink 5.7,2013-04-21 13:01:00,
2013-04-21 08:16:00,36.9,23.9,30.38,SE,135,6.0,11.0,59,0.00,,,-99.99,WeatherLink 5.7,2013-04-21 13:16:00,
2013-04-21 08:31:00,37.0,23.6,30.38,SE,135,6.0,12.0,58,0.00,,,-99.99,WeatherLink 5.7,2013-04-21 13:31:00,
2013-04-21 08:46:00,37.3,23.4,30.38,SE,135,6.0,11.0,57,0.00,,,-99.99,WeatherLink 5.7,2013-04-21 13:46:00,
2013-04-21 09:01:00,37.9,23.6,30.38,SE,135,6.0,12.0,56,0.00,,,-99.99,WeatherLink 5.7,2013-04-21 14:01:00,
2013-04-21 09:16:00,39.2,25.2,30.39,SE,135,6.0,13.0,57,0.00,,,-99.99,WeatherLink 5.7,2013-04-21 14:16:00,
2013-04-21 09:31:00,39.6,23.4,30.39,SSE,157,8.0,18.0,52,0.00,,,-99.99,WeatherLink 5.7,2013-04-21 14:31:00,
2013-04-21 09:46:00,40.1,24.3,30.38,SE,135,8.0,12.0,53,0.00,,,-99.99,WeatherLink 5.7,2013-04-21 14:46:00,
2013-04-21 10:01:00,41.2,25.8,30.38,SSE,157,7.0,14.0,54,0.00,,,-99.99,WeatherLink 5.7,2013-04-21 15:01:00,
2013-04-21 10:16:00,41.2,24.9,30.38,SE,135,8.0,13.0,52,0.00,,,-99.99,WeatherLink 5.7,2013-04-21 15:16:00,
2013-04-21 10:31:00,42.6,25.7,30.37,SSE,157,8.0,18.0,51,0.00,,,-99.99,WeatherLink 5.7,2013-04-21 15:31:00,
2013-04-21 10:46:00,44.2,28.1,30.35,SE,135,9.0,15.0,53,0.00,,,-99.99,WeatherLink 5.7,2013-04-21 15:46:00,
2013-04-21 11:01:00,44.8,28.7,30.35,SE,135,9.0,19.0,53,0.00,,,-99.99,WeatherLink 5.7,2013-04-21 16:01:00,
2013-04-21 11:16:00,44.9,27.4,30.34,SE,135,10.0,21.0,50,0.00,,,-99.99,WeatherLink 5.7,2013-04-21 16:16:00,
2013-04-21 11:31:00,46.0,28.9,30.33,SE,135,8.0,16.0,51,0.00,,,-99.99,WeatherLink 5.7,2013-04-21 16:31:00,
2013-04-21 11:46:00,46.8,28.1,30.33,SE,135,9.0,17.0,48,0.00,,,-99.99,WeatherLink 5.7,2013-04-21 16:46:00,
2013-04-21 12:01:00,47.0,30.3,30.32,SE,135,8.0,16.0,52,0.00,,,-99.99,WeatherLink 5.7,2013-04-21 17:01:00,
2013-04-21 12:16:00,47.9,27.6,30.31,SE,135,8.0,19.0,45,0.00,,,-99.99,WeatherLink 5.7,2013-04-21 17:16:00,
2013-04-21 12:33:00,47.6,28.9,30.30,SSE,157,9.0,18.0,48,0.00,,,-99.99,WeatherLink 5.7,2013-04-21 17:33:00,
2013-04-21 12:46:00,47.9,27.0,30.30,SE,135,8.0,15.0,44,0.00,,,-99.99,WeatherLink 5.7,2013-04-21 17:46:00,
2013-04-21 13:01:00,48.9,30.6,30.28,SSE,157,9.0,14.0,49,0.00,,,-99.99,WeatherLink 5.7,2013-04-21 18:01:00,
2013-04-21 13:16:00,48.8,30.0,30.28,SE,135,9.0,17.0,48,0.00,,,-99.99,WeatherLink 5.7,2013-04-21 18:16:00,
2013-04-21 13:31:00,49.6,30.7,30.27,SE,135,9.0,16.0,48,0.00,,,-99.99,WeatherLink 5.7,2013-04-21 18:31:00,
2013-04-21 13:46:00,49.8,30.4,30.26,SE,135,10.0,18.0,47,0.00,,,-99.99,WeatherLink 5.7,2013-04-21 18:46:00,
2013-04-21 14:01:00,50.8,33.3,30.26,SSE,157,10.0,17.0,51,0.00,,,-99.99,WeatherLink 5.7,2013-04-21 19:01:00,
2013-04-21 14:16:00,50.8,31.8,30.25,SSE,157,10.0,17.0,48,0.00,,,-99.99,WeatherLink 5.7,2013-04-21 19:16:00,
2013-04-21 14:31:00,51.1,31.6,30.24,SE,135,8.0,17.0,47,0.00,,,-99.99,WeatherLink 5.7,2013-04-21 19:31:00,
2013-04-21 14:46:00,50.7,31.2,30.24,SSE,157,9.0,19.0,47,0.00,,,-99.99,WeatherLink 5.7,2013-04-21 19:46:00,
2013-04-21 15:01:00,51.4,32.3,30.23,SSE,157,10.0,18.0,48,0.00,,,-99.99,WeatherLink 5.7,2013-04-21 20:01:00,
2013-04-21 15:16:00,51.9,31.2,30.22,SSE,157,10.0,18.0,45,0.00,,,-99.99,WeatherLink 5.7,2013-04-21 20:16:00,
2013-04-21 15:31:00,52.0,32.9,30.22,SSE,157,9.0,17.0,48,0.00,,,-99.99,WeatherLink 5.7,2013-04-21 20:31:00,
2013-04-21 15:46:00,51.9,32.3,30.22,SSE,157,9.0,18.0,47,0.00,,,-99.99,WeatherLink 5.7,2013-04-21 20:46:00,
2013-04-21 16:01:00,51.7,33.1,30.21,SSE,157,8.0,17.0,49,0.00,,,-99.99,WeatherLink 5.7,2013-04-21 21:01:00,
2013-04-21 16:16:00,53.5,34.8,30.20,SSE,157,8.0,17.0,49,0.00,,,-99.99,WeatherLink 5.7,2013-04-21 21:16:00,
2013-04-21 16:31:00,52.8,34.2,30.20,SSE,157,10.0,19.0,49,0.00,,,-99.99,WeatherLink 5.7,2013-04-21 21:31:00,
2013-04-21 16:46:00,52.9,35.7,30.19,SSE,157,8.0,17.0,52,0.00,,,-99.99,WeatherLink 5.7,2013-04-21 21:46:00,
2013-04-21 17:01:00,52.6,34.5,30.19,SSE,157,9.0,19.0,50,0.00,,,-99.99,WeatherLink 5.7,2013-04-21 22:01:00,
2013-04-21 17:16:00,52.9,35.2,30.18,SSE,157,9.0,16.0,51,0.00,,,-99.99,WeatherLink 5.7,2013-04-21 22:16:00,
2013-04-21 17:31:00,52.6,35.0,30.18,SSE,157,10.0,18.0,51,0.00,,,-99.99,WeatherLink 5.7,2013-04-21 22:31:00,
2013-04-21 17:46:00,52.5,34.9,30.18,SSE,157,10.0,17.0,51,0.00,,,-99.99,WeatherLink 5.7,2013-04-21 22:46:00,
2013-04-21 18:01:00,52.3,35.2,30.18,SSE,157,8.0,16.0,52,0.00,,,-99.99,WeatherLink 5.7,2013-04-21 23:01:00,
2013-04-21 18:16:00,52.2,35.6,30.17,SSE,157,8.0,15.0,53,0.00,,,-99.99,WeatherLink 5.7,2013-04-21 23:16:00,
2013-04-21 18:31:00,51.7,35.6,30.17,SSE,157,9.0,13.0,54,0.00,,,-99.99,WeatherLink 5.7,2013-04-21 23:31:00,
2013-04-21 18:46:00,51.0,35.8,30.16,SSE,157,7.0,16.0,56,0.00,,,-99.99,WeatherLink 5.7,2013-04-21 23:46:00,
2013-04-21 19:01:00,50.5,35.8,30.16,SSE,157,7.0,13.0,57,0.00,,,-99.99,WeatherLink 5.7,2013-04-22 00:01:00,
2013-04-21 19:16:00,50.2,35.5,30.16,SSE,157,7.0,16.0,57,0.00,,,-99.99,WeatherLink 5.7,2013-04-22 00:16:00,
2013-04-21 19:31:00,49.8,35.6,30.17,SSE,157,6.0,17.0,58,0.00,,,-99.99,WeatherLink 5.7,2013-04-22 00:31:00,
2013-04-21 19:46:00,49.5,35.3,30.17,SSE,157,7.0,16.0,58,0.00,,,-99.99,WeatherLink 5.7,2013-04-22 00:46:00,
2013-04-21 20:01:00,49.2,35.5,30.17,SSE,157,7.0,15.0,59,0.00,,,-99.99,WeatherLink 5.7,2013-04-22 01:01:00,
2013-04-21 20:16:00,49.1,35.4,30.17,SSE,157,6.0,13.0,59,0.00,,,-99.99,WeatherLink 5.7,2013-04-22 01:16:00,
2013-04-21 20:31:00,48.9,35.2,30.17,SSE,157,6.0,13.0,59,0.00,,,-99.99,WeatherLink 5.7,2013-04-22 01:31:00,
2013-04-21 20:46:00,48.6,34.9,30.17,SSE,157,6.0,15.0,59,0.00,,,-99.99,WeatherLink 5.7,2013-04-22 01:46:00,
2013-04-21 21:01:00,48.2,35.0,30.17,SSE,157,6.0,14.0,60,0.00,,,-99.99,WeatherLink 5.7,2013-04-22 02:01:00,
2013-04-21 21:17:00,48.0,34.8,30.17,SSE,157,7.0,14.0,60,0.00,,,-99.99,WeatherLink 5.7,2013-04-22 02:17:00,
2013-04-21 21:32:00,48.0,34.3,30.17,SSE,157,8.0,14.0,59,0.00,,,-99.99,WeatherLink 5.7,2013-04-22 02:32:00,
2013-04-21 21:47:00,48.0,33.9,30.18,SSE,157,9.0,15.0,58,0.00,,,-99.99,WeatherLink 5.7,2013-04-22 02:47:00,
2013-04-21 22:01:00,47.6,34.0,30.17,SSE,157,10.0,19.0,59,0.00,,,-99.99,WeatherLink 5.7,2013-04-22 03:01:00,
2013-04-21 22:16:00,47.4,34.6,30.16,SSE,157,10.0,18.0,61,0.00,,,-99.99,WeatherLink 5.7,2013-04-22 03:16:00,
2013-04-21 22:31:00,47.0,34.6,30.16,SSE,157,10.0,19.0,62,0.00,,,-99.99,WeatherLink 5.7,2013-04-22 03:31:00,
2013-04-21 22:46:00,46.7,34.4,30.17,SSE,157,9.0,17.0,62,0.00,,,-99.99,WeatherLink 5.7,2013-04-22 03:46:00,
2013-04-21 23:01:00,46.2,34.3,30.17,SSE,157,7.0,14.0,63,0.00,,,-99.99,WeatherLink 5.7,2013-04-22 04:01:00,
2013-04-21 23:16:00,46.1,34.6,30.17,SSE,157,8.0,14.0,64,0.00,,,-99.99,WeatherLink 5.7,2013-04-22 04:16:00,
2013-04-21 23:31:00,45.8,34.3,30.16,SSE,157,8.0,15.0,64,0.00,,,-99.99,WeatherLink 5.7,2013-04-22 04:31:00,
2013-04-21 23:46:00,45.5,34.4,30.16,SSE,157,8.0,14.0,65,0.00,,,-99.99,WeatherLink 5.7,2013-04-22 04:46:00,